Time;durP1;ratioP1;P1;durP2;ratioP2;P2;SDS_P1;SDS_P2;PMS_P1;PMS_P2;Temp;Humidity;BMP_temperature;BMP_pressure;BME280_temperature;BME280_humidity;BME280_pressure;Samples;Min_cycle;Max_cycle;Signal;HPM_P1;HPM_P2
2023/08/12 00:01:30;;;;;;;8.50;5.50;;;;;;;12.65;71.82;97885.35;107648;1243;96637;-79
2023/08/12 00:03:57;;;;;;;7.10;6.00;;;;;;;12.60;71.85;97887.39;107761;1236;96637;-79
2023/08/12 00:06:23;;;;;;;10.40;6.00;;;;;;;12.51;72.05;97883.21;107874;1241;101541;-79
2023/08/12 00:08:49;;;;;;;6.60;5.60;;;;;;;12.45;72.22;97883.85;107737;1246;96579;-79
2023/08/12 00:11:15;;;;;;;7.80;5.90;;;;;;;12.36;72.33;97878.95;107280;1240;96621;-79
2023/08/12 00:13:42;;;;;;;6.20;5.40;;;;;;;12.37;72.51;97881.91;107675;1239;97816;-79
2023/08/12 00:16:08;;;;;;;7.10;5.80;;;;;;;12.38;72.58;97881.95;107787;1246;101429;-85
2023/08/12 00:18:36;;;;;;;7.80;5.20;;;;;;;12.34;72.53;97880.54;107822;1238;97100;-85
2023/08/12 00:21:10;;;;;;;8.00;5.30;;;;;;;12.23;72.75;97872.80;107839;1240;97454;-85
2023/08/12 00:23:41;;;;;;;5.80;5.00;;;;;;;12.19;72.96;97869.99;107771;1239;96960;-85
2023/08/12 00:26:08;;;;;;;8.20;5.70;;;;;;;12.17;73.05;97868.54;107881;1238;102184;-86
2023/08/12 00:28:34;;;;;;;7.20;5.00;;;;;;;12.15;73.10;97869.45;107843;1239;96991;-85
2023/08/12 00:31:01;;;;;;;8.20;5.10;;;;;;;12.14;73.06;97868.03;107331;1242;97224;-84
2023/08/12 00:33:27;;;;;;;8.20;5.90;;;;;;;12.14;72.98;97865.70;107247;1251;96753;-84
2023/08/12 00:35:53;;;;;;;11.60;6.80;;;;;;;12.06;73.13;97863.14;107307;1245;96760;-85
2023/08/12 00:38:20;;;;;;;7.60;6.60;;;;;;;12.00;73.29;97864.84;107332;1251;101473;-84
2023/08/12 00:40:46;;;;;;;8.00;6.20;;;;;;;12.01;73.35;97863.67;107305;1242;97887;-84
2023/08/12 00:43:12;;;;;;;8.00;6.20;;;;;;;11.94;73.31;97862.48;107333;1249;96815;-84
2023/08/12 00:45:39;;;;;;;9.10;5.70;;;;;;;11.89;73.46;97857.85;107321;1240;96648;-84
2023/08/12 00:48:07;;;;;;;8.10;5.90;;;;;;;11.89;73.61;97856.77;107142;1245;101651;-84
2023/08/12 00:50:36;;;;;;;11.50;6.30;;;;;;;11.86;73.66;97854.10;107471;1242;106535;-84
2023/08/12 00:53:02;;;;;;;7.30;5.80;;;;;;;11.79;73.52;97855.57;107338;1251;96723;-85
2023/08/12 00:55:29;;;;;;;7.60;6.30;;;;;;;11.75;73.72;97854.38;107326;1242;97138;-85
2023/08/12 00:57:55;;;;;;;10.00;6.20;;;;;;;11.75;73.80;97849.98;107289;1245;96570;-83
2023/08/12 01:00:22;;;;;;;6.10;5.20;;;;;;;11.77;73.72;97847.04;107371;1240;96759;-85
2023/08/12 01:02:49;;;;;;;7.30;5.40;;;;;;;11.78;73.71;97846.17;107547;1239;97491;-85
2023/08/12 01:05:15;;;;;;;5.80;4.80;;;;;;;11.78;73.50;97844.45;107759;1239;97551;-84
2023/08/12 01:07:43;;;;;;;7.30;5.30;;;;;;;11.76;73.42;97843.08;107750;1239;97807;-84
2023/08/12 01:10:14;;;;;;;8.30;4.60;;;;;;;11.74;73.51;97845.67;107397;1249;96586;-85
2023/08/12 01:12:59;;;;;;;6.90;4.80;;;;;;;11.73;73.45;97844.58;107058;1241;100121;-84
2023/08/12 01:15:26;;;;;;;10.40;4.80;;;;;;;11.68;73.34;97844.64;107800;1246;96561;-84
2023/08/12 01:17:55;;;;;;;7.60;4.90;;;;;;;11.63;73.32;97840.00;107740;1246;96590;-84
2023/08/12 01:20:24;;;;;;;6.40;4.50;;;;;;;11.53;73.33;97839.88;107421;1242;102183;-83
2023/08/12 01:23:18;;;;;;;7.50;4.70;;;;;;;11.42;73.59;97838.36;107807;1246;101398;-84
2023/08/12 01:25:44;;;;;;;8.20;5.10;;;;;;;11.33;73.84;97838.61;107268;1245;98678;-84
2023/08/12 01:28:10;;;;;;;5.60;4.90;;;;;;;11.30;74.03;97838.14;107790;1246;97156;-83
2023/08/12 01:30:51;;;;;;;7.60;5.00;;;;;;;11.26;74.15;97836.80;107816;1239;97110;-84
2023/08/12 01:33:30;;;;;;;6.00;5.40;;;;;;;11.27;74.20;97842.70;107786;1238;102389;-84
2023/08/12 01:36:17;;;;;;;7.20;4.90;;;;;;;11.28;74.21;97841.26;107794;1239;101158;-84
2023/08/12 01:38:46;;;;;;;7.10;5.30;;;;;;;11.27;74.09;97842.54;107801;1241;98905;-85
2023/08/12 01:41:14;;;;;;;6.70;4.50;;;;;;;11.26;74.18;97840.66;107446;1242;97810;-84
2023/08/12 01:43:41;;;;;;;6.90;5.20;;;;;;;11.25;74.15;97842.99;107856;1239;97686;-84
2023/08/12 01:46:08;;;;;;;5.70;4.70;;;;;;;11.21;74.06;97841.70;107856;1240;96848;-84
2023/08/12 01:48:34;;;;;;;6.80;5.40;;;;;;;11.17;74.01;97841.58;107770;1244;97490;-85
2023/08/12 01:51:01;;;;;;;8.00;5.00;;;;;;;11.17;74.01;97845.40;107746;1239;96775;-85
2023/08/12 01:53:27;;;;;;;6.60;4.70;;;;;;;11.17;74.12;97847.60;107746;1248;96545;-84
2023/08/12 01:55:53;;;;;;;7.40;5.30;;;;;;;11.17;74.27;97846.69;107793;1239;102503;-84
2023/08/12 01:58:20;;;;;;;6.60;5.00;;;;;;;11.15;74.20;97851.21;107786;1249;96537;-85
2023/08/12 02:00:46;;;;;;;6.90;4.90;;;;;;;11.11;74.20;97851.23;107832;1239;96561;-84
2023/08/12 02:03:12;;;;;;;5.20;4.70;;;;;;;11.08;74.23;97846.26;107963;1239;96774;-85
2023/08/12 02:05:40;;;;;;;9.60;5.00;;;;;;;11.07;74.26;97847.16;107899;1236;102371;-84
2023/08/12 02:08:07;;;;;;;8.70;5.40;;;;;;;10.99;74.39;97844.56;107583;1241;100277;-84
2023/08/12 02:10:33;;;;;;;6.60;4.90;;;;;;;10.95;74.54;97843.67;107894;1238;96571;-84
2023/08/12 02:12:59;;;;;;;5.30;4.80;;;;;;;10.93;74.49;97843.63;107908;1241;97129;-85
2023/08/12 02:15:26;;;;;;;6.90;5.00;;;;;;;10.94;74.48;97848.23;107947;1241;96642;-85
2023/08/12 02:17:52;;;;;;;9.00;5.30;;;;;;;10.92;74.41;97845.33;107870;1246;101573;-84
2023/08/12 02:20:18;;;;;;;9.70;5.40;;;;;;;10.91;74.53;97848.94;107778;1250;96558;-84
2023/08/12 02:22:45;;;;;;;5.90;4.60;;;;;;;10.87;74.36;97848.63;107738;1239;96554;-84
2023/08/12 02:25:11;;;;;;;6.80;4.90;;;;;;;10.83;74.30;97854.15;107861;1239;97274;-84
2023/08/12 02:27:37;;;;;;;6.30;4.80;;;;;;;10.80;74.26;97853.30;107677;1238;101206;-81
2023/08/12 02:30:05;;;;;;;7.30;4.80;;;;;;;10.77;74.39;97849.29;107686;1249;97389;-83
2023/08/12 02:32:31;;;;;;;6.00;4.60;;;;;;;10.74;74.57;97848.32;107670;1237;96547;-83
2023/08/12 02:34:57;;;;;;;6.00;4.80;;;;;;;10.74;74.49;97847.42;107798;1236;97361;-82
2023/08/12 02:37:23;;;;;;;6.10;4.90;;;;;;;10.73;74.54;97847.01;107873;1248;96559;-84
2023/08/12 02:39:50;;;;;;;10.10;4.90;;;;;;;10.72;74.66;97848.42;107768;1247;109388;-86
2023/08/12 02:42:16;;;;;;;8.40;5.20;;;;;;;10.73;74.74;97845.77;107768;1241;96579;-85
2023/08/12 02:44:42;;;;;;;6.80;4.90;;;;;;;10.68;74.60;97850.92;107789;1238;96779;-86
2023/08/12 02:47:09;;;;;;;7.40;5.00;;;;;;;10.65;74.56;97856.14;107831;1239;96638;-85
2023/08/12 02:49:35;;;;;;;6.90;4.60;;;;;;;10.58;74.62;97858.35;107901;1237;100022;-84
2023/08/12 02:52:02;;;;;;;5.10;4.60;;;;;;;10.53;74.67;97861.56;107840;1250;96544;-84
2023/08/12 02:54:29;;;;;;;7.70;5.00;;;;;;;10.49;74.67;97860.84;107919;1239;96870;-84
2023/08/12 02:56:55;;;;;;;6.60;5.30;;;;;;;10.46;74.77;97865.81;107849;1239;96544;-84
2023/08/12 02:59:21;;;;;;;6.10;4.70;;;;;;;10.43;74.84;97867.33;107771;1241;98621;-85
2023/08/12 03:01:47;;;;;;;5.80;4.60;;;;;;;10.41;74.87;97871.17;107785;1239;97103;-84
2023/08/12 03:04:14;;;;;;;5.70;4.90;;;;;;;10.38;74.89;97867.42;107752;1239;96981;-84
2023/08/12 03:06:40;;;;;;;5.50;4.90;;;;;;;10.34;74.95;97874.25;107734;1239;96992;-85
2023/08/12 03:09:07;;;;;;;6.50;5.00;;;;;;;10.32;75.08;97874.95;107597;1243;100032;-85
2023/08/12 03:11:33;;;;;;;7.50;4.70;;;;;;;10.29;75.04;97875.25;107779;1248;97481;-85
2023/08/12 03:14:02;;;;;;;7.20;5.00;;;;;;;10.23;75.14;97878.35;107770;1239;97514;-85
2023/08/12 03:16:28;;;;;;;8.70;5.50;;;;;;;10.23;75.28;97881.33;107761;1239;97370;-84
2023/08/12 03:18:54;;;;;;;8.80;5.00;;;;;;;10.23;75.28;97882.16;107748;1246;97652;-83
2023/08/12 03:21:21;;;;;;;6.60;5.10;;;;;;;10.22;75.23;97884.98;107818;1239;96625;-85
2023/08/12 03:23:47;;;;;;;6.30;5.30;;;;;;;10.15;75.23;97884.45;107772;1235;96958;-84
2023/08/12 03:26:14;;;;;;;6.80;5.00;;;;;;;10.12;75.52;97887.54;107722;1246;96590;-84
2023/08/12 03:28:40;;;;;;;7.30;5.00;;;;;;;10.09;75.57;97881.03;107781;1246;97137;-84
2023/08/12 03:31:07;;;;;;;5.60;5.00;;;;;;;10.12;75.61;97881.73;107845;1239;97813;-83
2023/08/12 03:33:33;;;;;;;6.00;5.40;;;;;;;10.15;75.65;97887.86;107824;1241;97190;-81
2023/08/12 03:36:00;;;;;;;6.70;5.20;;;;;;;10.15;75.54;97888.33;107759;1247;97476;-82
2023/08/12 03:38:26;;;;;;;8.30;5.30;;;;;;;10.16;75.66;97892.11;107742;1247;96577;-82
2023/08/12 03:40:52;;;;;;;6.90;5.00;;;;;;;10.16;75.77;97893.27;107843;1241;97489;-82
2023/08/12 03:43:19;;;;;;;9.60;6.40;;;;;;;10.13;75.74;97891.72;107789;1247;98468;-82
2023/08/12 03:45:46;;;;;;;8.30;5.60;;;;;;;10.04;75.69;97895.60;107574;1239;97778;-76
2023/08/12 03:48:12;;;;;;;7.40;5.50;;;;;;;9.97;75.94;97896.42;107393;1249;97826;-76
2023/08/12 03:50:39;;;;;;;8.50;5.60;;;;;;;10.01;76.12;97895.84;107725;1246;96633;-76
2023/08/12 03:53:06;;;;;;;7.80;5.40;;;;;;;10.00;76.08;97894.80;107433;1242;96530;-76
2023/08/12 03:55:33;;;;;;;7.40;5.00;;;;;;;10.01;76.27;97895.46;107845;1237;97492;-76
2023/08/12 03:58:00;;;;;;;5.90;5.30;;;;;;;10.01;76.23;97896.09;107388;1237;96685;-76
2023/08/12 04:00:27;;;;;;;7.10;5.40;;;;;;;10.02;76.29;97894.50;107787;1237;97806;-77
2023/08/12 04:02:54;;;;;;;8.60;5.40;;;;;;;10.05;76.41;97898.46;107860;1238;96640;-77
2023/08/12 04:05:20;;;;;;;6.40;5.80;;;;;;;10.08;76.45;97899.02;107809;1248;97480;-80
2023/08/12 04:07:47;;;;;;;6.30;5.70;;;;;;;10.13;76.62;97897.88;107674;1246;101532;-82
2023/08/12 04:10:13;;;;;;;6.30;5.50;;;;;;;10.16;76.54;97894.35;107552;1246;96482;-82
2023/08/12 04:12:41;;;;;;;8.10;5.40;;;;;;;10.19;76.68;97891.88;107727;1240;97775;-83
2023/08/12 04:15:09;;;;;;;10.40;6.10;;;;;;;10.24;76.67;97895.53;107817;1247;96534;-82
2023/08/12 04:17:35;;;;;;;17.50;11.90;;;;;;;10.29;76.86;97898.50;107614;1241;96540;-82
2023/08/12 04:20:05;;;;;;;27.20;16.70;;;;;;;10.33;76.93;97899.02;107830;1234;96579;-81
2023/08/12 04:22:31;;;;;;;23.10;15.40;;;;;;;10.38;76.98;97893.63;107792;1237;96559;-83
2023/08/12 04:24:58;;;;;;;12.70;8.60;;;;;;;10.43;76.89;97893.44;107751;1242;97678;-78
2023/08/12 04:27:24;;;;;;;12.60;8.00;;;;;;;10.45;76.81;97891.64;107766;1246;97144;-79
2023/08/12 04:29:50;;;;;;;10.60;7.60;;;;;;;10.48;76.89;97893.57;107827;1245;97476;-79
2023/08/12 04:32:17;;;;;;;11.30;7.20;;;;;;;10.50;76.96;97895.02;107771;1240;96794;-79
2023/08/12 04:34:43;;;;;;;9.30;6.30;;;;;;;10.54;77.07;97895.11;107808;1239;97132;-79
2023/08/12 04:37:09;;;;;;;7.10;6.30;;;;;;;10.56;77.19;97891.77;107799;1239;97099;-79
2023/08/12 04:39:36;;;;;;;7.90;6.20;;;;;;;10.59;77.21;97892.73;107835;1235;97466;-79
2023/08/12 04:42:02;;;;;;;9.30;6.80;;;;;;;10.63;77.27;97895.95;107793;1248;97472;-79
2023/08/12 04:44:28;;;;;;;9.10;7.30;;;;;;;10.69;77.34;97895.79;107638;1237;96617;-79
2023/08/12 04:46:54;;;;;;;10.70;7.40;;;;;;;10.73;77.33;97893.02;107695;1246;96846;-79
2023/08/12 04:49:21;;;;;;;8.90;7.30;;;;;;;10.79;77.46;97895.88;107845;1248;97128;-79
2023/08/12 04:51:47;;;;;;;8.20;6.50;;;;;;;10.83;77.29;97896.82;107780;1242;97471;-79
2023/08/12 04:54:13;;;;;;;8.40;6.70;;;;;;;10.86;77.34;97891.84;107802;1245;97462;-79
2023/08/12 04:56:39;;;;;;;11.10;6.80;;;;;;;10.89;77.43;97886.23;107836;1240;96558;-79
2023/08/12 04:59:08;;;;;;;10.70;8.30;;;;;;;10.94;77.48;97887.27;107853;1247;97812;-78
2023/08/12 05:01:34;;;;;;;13.10;7.30;;;;;;;10.98;77.53;97883.77;107252;1240;97543;-79
2023/08/12 05:04:00;;;;;;;11.20;7.50;;;;;;;11.04;77.62;97886.50;107754;1241;97383;-79
2023/08/12 05:06:27;;;;;;;17.40;8.10;;;;;;;11.07;77.71;97889.39;107799;1237;96554;-79
2023/08/12 05:08:53;;;;;;;13.30;7.60;;;;;;;11.11;77.81;97889.77;107834;1246;97485;-79
2023/08/12 05:11:19;;;;;;;11.90;8.00;;;;;;;11.16;77.80;97888.84;107791;1250;96709;-79
2023/08/12 05:13:46;;;;;;;9.20;8.00;;;;;;;11.21;78.00;97888.44;107734;1244;96551;-79
2023/08/12 05:16:12;;;;;;;14.80;8.30;;;;;;;11.25;77.95;97882.83;107813;1239;97160;-79
2023/08/12 05:18:38;;;;;;;13.20;9.00;;;;;;;11.31;77.92;97881.93;107760;1246;96577;-79
2023/08/12 05:21:04;;;;;;;14.90;9.10;;;;;;;11.37;78.13;97879.82;107791;1246;97884;-79
2023/08/12 05:23:31;;;;;;;15.90;10.90;;;;;;;11.44;78.25;97881.42;107751;1248;96801;-79
2023/08/12 05:25:57;;;;;;;13.00;10.10;;;;;;;11.49;78.47;97877.72;107773;1239;96644;-79
2023/08/12 05:28:23;;;;;;;12.70;9.50;;;;;;;11.57;78.39;97879.23;107851;1246;97894;-79
2023/08/12 05:30:50;;;;;;;13.80;10.30;;;;;;;11.63;78.37;97881.02;107769;1239;96640;-79
2023/08/12 05:33:16;;;;;;;11.50;8.30;;;;;;;11.71;78.60;97883.65;107796;1241;96563;-80
2023/08/12 05:35:42;;;;;;;10.60;7.90;;;;;;;11.77;78.69;97879.13;107778;1238;96673;-79
2023/08/12 05:38:08;;;;;;;8.90;7.00;;;;;;;11.86;78.56;97878.83;107819;1242;97820;-79
2023/08/12 05:40:36;;;;;;;7.80;6.90;;;;;;;11.94;78.59;97874.34;107580;1239;97123;-82
2023/08/12 05:43:02;;;;;;;12.30;7.10;;;;;;;12.03;78.73;97875.45;107708;1237;96548;-82
2023/08/12 05:45:28;;;;;;;10.30;7.50;;;;;;;12.10;78.86;97879.36;107805;1240;96568;-82
2023/08/12 05:47:55;;;;;;;8.80;6.60;;;;;;;12.17;78.82;97873.64;107787;1240;96542;-82
2023/08/12 05:50:21;;;;;;;11.40;6.90;;;;;;;12.26;78.89;97875.14;107847;1250;97320;-81
2023/08/12 05:52:48;;;;;;;10.40;7.70;;;;;;;12.36;78.95;97871.79;107822;1245;97669;-81
2023/08/12 05:55:14;;;;;;;11.30;7.60;;;;;;;12.46;79.06;97870.19;107786;1239;96635;-81
2023/08/12 05:57:40;;;;;;;9.40;7.20;;;;;;;12.54;78.93;97866.54;107812;1240;97156;-81
2023/08/12 06:00:07;;;;;;;9.50;7.10;;;;;;;12.66;78.95;97866.89;107644;1241;97090;-79
2023/08/12 06:02:34;;;;;;;7.80;6.60;;;;;;;12.78;78.78;97859.26;107792;1241;97170;-79
2023/08/12 06:05:00;;;;;;;9.20;7.10;;;;;;;12.86;78.73;97856.69;107668;1236;96551;-79
2023/08/12 06:07:27;;;;;;;8.30;6.50;;;;;;;12.95;78.34;97852.72;107412;1241;96548;-79
2023/08/12 06:09:53;;;;;;;10.20;6.70;;;;;;;13.04;78.51;97854.64;107462;1235;97020;-79
2023/08/12 06:12:19;;;;;;;8.30;6.70;;;;;;;13.15;78.45;97855.85;107665;1240;97049;-79
2023/08/12 06:14:46;;;;;;;10.20;7.00;;;;;;;13.24;78.29;97854.53;107828;1250;96550;-79
2023/08/12 06:17:12;;;;;;;10.10;7.30;;;;;;;13.37;78.16;97851.60;107780;1244;96619;-79
2023/08/12 06:19:38;;;;;;;9.30;6.70;;;;;;;13.48;78.11;97850.49;107754;1246;96589;-79
2023/08/12 06:22:05;;;;;;;10.30;6.80;;;;;;;13.60;78.05;97851.59;107615;1240;97000;-79
2023/08/12 06:24:31;;;;;;;7.30;6.50;;;;;;;13.73;78.01;97853.70;107458;1240;97135;-79
2023/08/12 06:26:57;;;;;;;9.70;7.20;;;;;;;13.83;77.87;97854.32;107543;1241;97794;-79
2023/08/12 06:29:24;;;;;;;9.30;7.60;;;;;;;13.97;77.78;97856.71;107780;1240;97699;-79
2023/08/12 06:31:50;;;;;;;9.30;8.20;;;;;;;14.10;77.88;97852.14;107810;1245;97085;-79
2023/08/12 06:34:16;;;;;;;11.00;8.30;;;;;;;14.21;77.72;97852.06;107829;1247;96755;-79
2023/08/12 06:36:42;;;;;;;13.90;8.30;;;;;;;14.33;77.73;97850.45;107779;1250;96617;-79
2023/08/12 06:39:09;;;;;;;12.30;8.40;;;;;;;14.47;77.66;97847.77;107683;1247;96640;-82
2023/08/12 06:41:35;;;;;;;9.70;7.80;;;;;;;14.59;77.69;97850.23;107723;1240;97120;-82
2023/08/12 06:44:03;;;;;;;11.10;7.50;;;;;;;14.72;77.52;97848.45;107820;1247;97135;-81
2023/08/12 06:46:31;;;;;;;15.00;7.30;;;;;;;14.85;77.59;97841.70;107804;1250;97788;-81
2023/08/12 06:48:58;;;;;;;10.10;5.90;;;;;;;14.98;77.27;97834.46;107865;1241;97893;-81
2023/08/12 06:51:25;;;;;;;8.20;6.00;;;;;;;15.11;76.63;97838.58;107463;1243;96655;-81
2023/08/12 06:53:51;;;;;;;7.60;5.80;;;;;;;15.23;76.63;97833.95;107877;1241;96567;-81
2023/08/12 06:56:18;;;;;;;9.10;5.90;;;;;;;15.38;76.16;97828.98;107793;1246;97480;-81
2023/08/12 06:58:44;;;;;;;7.00;5.90;;;;;;;15.54;76.04;97831.57;107716;1247;97571;-79
2023/08/12 07:01:10;;;;;;;7.30;5.40;;;;;;;15.69;75.94;97831.52;107739;1240;96548;-79
2023/08/12 07:03:36;;;;;;;7.60;5.30;;;;;;;15.83;75.43;97831.24;107796;1247;96575;-79
2023/08/12 07:06:05;;;;;;;9.70;5.70;;;;;;;15.96;75.20;97827.38;107784;1249;96574;-79
2023/08/12 07:08:32;;;;;;;6.00;5.10;;;;;;;16.10;75.05;97826.85;107820;1247;96775;-79
2023/08/12 07:10:58;;;;;;;9.80;5.70;;;;;;;16.24;74.56;97831.21;107759;1240;97130;-81
2023/08/12 07:13:25;;;;;;;8.90;5.40;;;;;;;16.37;74.32;97828.72;107746;1248;97473;-82
2023/08/12 07:15:51;;;;;;;8.10;5.80;;;;;;;16.48;74.08;97829.09;107762;1235;102143;-82
2023/08/12 07:18:17;;;;;;;10.10;5.00;;;;;;;16.60;73.82;97830.73;107652;1247;97675;-80
2023/08/12 07:20:44;;;;;;;6.10;5.40;;;;;;;16.73;73.64;97825.35;107736;1250;96643;-81
2023/08/12 07:23:10;;;;;;;6.10;5.50;;;;;;;16.88;73.41;97824.25;107811;1249;96468;-82
2023/08/12 07:25:36;;;;;;;8.00;5.90;;;;;;;17.03;73.39;97820.08;107771;1241;102628;-82
2023/08/12 07:28:03;;;;;;;7.90;5.40;;;;;;;17.18;73.27;97815.27;107794;1248;96624;-81
2023/08/12 07:30:29;;;;;;;6.30;5.10;;;;;;;17.33;73.36;97815.48;107684;1246;96525;-82
2023/08/12 07:32:55;;;;;;;7.60;5.50;;;;;;;17.49;72.95;97809.23;107818;1246;96591;-82
2023/08/12 07:35:22;;;;;;;9.60;5.70;;;;;;;17.64;72.94;97812.95;107768;1242;101606;-81
2023/08/12 07:37:48;;;;;;;7.20;5.50;;;;;;;17.84;72.67;97814.34;107448;1249;97794;-82
2023/08/12 07:40:14;;;;;;;7.20;5.00;;;;;;;18.03;72.25;97812.02;107775;1246;96557;-82
2023/08/12 07:42:41;;;;;;;8.90;4.90;;;;;;;18.23;71.69;97812.89;107780;1247;96598;-82
2023/08/12 07:45:08;;;;;;;6.40;5.00;;;;;;;18.49;71.65;97806.39;107800;1241;102193;-83
2023/08/12 07:47:35;;;;;;;7.10;5.00;;;;;;;18.90;71.52;97809.45;107868;1248;100922;-83
2023/08/12 07:50:01;;;;;;;5.40;4.50;;;;;;;19.37;70.97;97804.70;107789;1235;96566;-82
2023/08/12 07:52:27;;;;;;;8.10;4.40;;;;;;;19.88;70.41;97800.88;107788;1241;96633;-82
2023/08/12 07:54:54;;;;;;;7.40;5.20;;;;;;;20.45;69.84;97802.57;107856;1241;96622;-81
2023/08/12 07:57:23;;;;;;;6.50;4.20;;;;;;;20.94;68.08;97796.56;107711;1250;99953;-81
2023/08/12 07:59:51;;;;;;;6.70;4.20;;;;;;;21.37;67.08;97796.73;107702;1250;100079;-81
2023/08/12 08:02:17;;;;;;;5.90;4.50;;;;;;;21.85;66.39;97794.67;107366;1250;96735;-80
2023/08/12 08:04:44;;;;;;;6.00;4.50;;;;;;;22.32;65.76;97795.10;107844;1240;97251;-81
2023/08/12 08:07:11;;;;;;;7.40;4.30;;;;;;;22.72;64.44;97792.33;107847;1247;96599;-81
2023/08/12 08:09:37;;;;;;;6.10;4.40;;;;;;;23.08;63.21;97787.09;107870;1246;97797;-81
2023/08/12 08:12:04;;;;;;;9.40;4.60;;;;;;;23.38;62.69;97784.40;107926;1240;96784;-81
2023/08/12 08:14:30;;;;;;;7.40;4.30;;;;;;;23.69;61.41;97782.57;107883;1237;96989;-82
2023/08/12 08:16:57;;;;;;;6.60;3.80;;;;;;;23.92;60.75;97782.51;107389;1244;97601;-80
2023/08/12 08:19:23;;;;;;;6.90;3.90;;;;;;;24.17;59.94;97778.10;107721;1241;96551;-81
2023/08/12 08:21:50;;;;;;;6.30;3.60;;;;;;;24.47;59.23;97778.11;107949;1237;96565;-81
2023/08/12 08:24:16;;;;;;;5.40;3.50;;;;;;;24.72;58.06;97775.52;107801;1237;97318;-81
2023/08/12 08:26:42;;;;;;;6.00;3.20;;;;;;;24.96;57.41;97772.55;107650;1248;97466;-81
2023/08/12 08:29:09;;;;;;;7.20;3.30;;;;;;;25.19;55.93;97763.92;107737;1235;97460;-81
2023/08/12 08:31:35;;;;;;;4.50;3.00;;;;;;;25.48;55.66;97766.88;107537;1235;96558;-81
2023/08/12 08:34:01;;;;;;;4.30;3.20;;;;;;;25.83;55.22;97765.27;108043;1237;97033;-81
2023/08/12 08:36:28;;;;;;;4.00;3.40;;;;;;;26.15;54.30;97770.69;107875;1246;97355;-81
2023/08/12 08:38:54;;;;;;;7.00;3.30;;;;;;;26.50;53.49;97767.61;108078;1238;96640;-81
2023/08/12 08:41:21;;;;;;;3.90;3.20;;;;;;;26.85;52.85;97766.09;108015;1239;97376;-82
2023/08/12 08:43:49;;;;;;;7.10;2.60;;;;;;;27.17;52.15;97761.67;107770;1237;97131;-82
2023/08/12 08:46:16;;;;;;;3.40;2.70;;;;;;;27.45;51.69;97754.98;107868;1235;101076;-82
2023/08/12 08:48:44;;;;;;;4.40;2.60;;;;;;;27.64;50.73;97757.55;107807;1247;96552;-82
2023/08/12 08:51:11;;;;;;;5.50;2.60;;;;;;;27.89;50.63;97753.94;107455;1241;97883;-81
2023/08/12 08:53:39;;;;;;;6.80;2.90;;;;;;;28.26;50.52;97751.98;107366;1239;96744;-82
2023/08/12 08:56:07;;;;;;;5.10;2.70;;;;;;;28.66;50.13;97748.41;107510;1244;96558;-81
2023/08/12 08:58:34;;;;;;;4.90;2.40;;;;;;;28.95;48.74;97745.41;107281;1249;102276;-82
2023/08/12 09:01:02;;;;;;;5.10;2.60;;;;;;;29.23;48.25;97745.16;107788;1237;97154;-82
2023/08/12 09:03:29;;;;;;;5.00;3.00;;;;;;;29.47;47.77;97741.79;107544;1241;96749;-82
2023/08/12 09:05:56;;;;;;;4.50;2.80;;;;;;;29.64;46.53;97739.58;107930;1237;97029;-82
2023/08/12 09:08:24;;;;;;;5.40;2.80;;;;;;;29.73;46.33;97740.22;107994;1243;97100;-82
2023/08/12 09:10:53;;;;;;;4.10;2.70;;;;;;;29.87;45.32;97739.27;108025;1236;96600;-82
2023/08/12 09:13:20;;;;;;;6.30;2.70;;;;;;;29.94;44.95;97738.80;107925;1236;101385;-82
2023/08/12 09:15:46;;;;;;;6.40;2.70;;;;;;;30.15;44.34;97734.34;107845;1237;96557;-82
2023/08/12 09:18:12;;;;;;;5.40;3.00;;;;;;;30.26;44.43;97731.02;108002;1246;96667;-81
2023/08/12 09:20:39;;;;;;;7.00;3.00;;;;;;;30.31;43.98;97733.06;108091;1246;96794;-82
2023/08/12 09:23:08;;;;;;;6.30;2.70;;;;;;;30.38;43.60;97732.19;107937;1234;101464;-82
2023/08/12 09:25:35;;;;;;;5.70;3.00;;;;;;;30.37;43.12;97727.29;107968;1248;98745;-82
2023/08/12 09:28:01;;;;;;;3.80;2.50;;;;;;;30.20;42.80;97726.45;108004;1234;96684;-83
2023/08/12 09:30:31;;;;;;;3.80;2.50;;;;;;;30.05;42.53;97719.56;108373;1241;96543;-82
2023/08/12 09:33:03;;;;;;;4.70;2.90;;;;;;;29.95;42.44;97717.20;107984;1238;101307;-81
2023/08/12 09:35:35;;;;;;;5.50;3.10;;;;;;;30.02;42.18;97719.15;107968;1238;109367;-81
2023/08/12 09:38:03;;;;;;;5.10;2.90;;;;;;;29.98;41.42;97719.04;107921;1239;98473;-81
2023/08/12 09:40:31;;;;;;;4.20;2.90;;;;;;;29.92;41.90;97715.23;107405;1241;97865;-81
2023/08/12 09:42:58;;;;;;;3.10;2.70;;;;;;;29.88;41.82;97714.98;107301;1244;97571;-80
2023/08/12 09:45:25;;;;;;;4.40;3.30;;;;;;;29.88;41.21;97713.57;107861;1246;96988;-81
2023/08/12 09:47:55;;;;;;;5.70;3.00;;;;;;;29.90;41.13;97717.08;107345;1249;97611;-81
2023/08/12 09:50:23;;;;;;;4.90;2.90;;;;;;;29.91;40.76;97712.92;107387;1244;99449;-80
2023/08/12 09:52:50;;;;;;;5.30;3.20;;;;;;;29.84;40.46;97714.71;107774;1238;96611;-79
2023/08/12 09:55:18;;;;;;;5.90;3.10;;;;;;;29.57;40.46;97713.42;107961;1235;97692;-80
2023/08/12 09:57:48;;;;;;;5.00;2.70;;;;;;;29.50;40.71;97707.54;107913;1242;101802;-80
2023/08/12 10:00:18;;;;;;;4.90;2.40;;;;;;;29.58;41.07;97704.82;107941;1237;102135;-80
2023/08/12 10:02:45;;;;;;;3.40;3.00;;;;;;;29.68;40.77;97706.39;107957;1238;100034;-79
2023/08/12 10:05:18;;;;;;;4.00;2.80;;;;;;;29.76;41.14;97702.67;107323;1250;96720;-80
2023/08/12 10:07:46;;;;;;;2.90;2.60;;;;;;;29.82;41.14;97702.33;107239;1244;97883;-80
2023/08/12 10:10:15;;;;;;;4.00;2.30;;;;;;;29.87;40.53;97700.31;107376;1251;102239;-82
2023/08/12 10:12:42;;;;;;;3.40;2.60;;;;;;;29.91;40.10;97698.90;107365;1253;97277;-81
2023/08/12 10:15:10;;;;;;;3.80;2.80;;;;;;;29.93;40.37;97700.83;107330;1241;97454;-81
2023/08/12 10:17:38;;;;;;;2.90;2.60;;;;;;;29.98;40.27;97697.48;107385;1252;97764;-81
2023/08/12 10:20:05;;;;;;;4.10;2.60;;;;;;;29.99;39.79;97699.69;107321;1253;97152;-82
2023/08/12 10:22:33;;;;;;;5.10;4.20;;;;;;;29.82;40.01;97696.19;107370;1242;102408;-82
2023/08/12 10:25:02;;;;;;;5.80;3.90;;;;;;;29.55;40.24;97697.27;107341;1246;101432;-81
2023/08/12 10:27:28;;;;;;;8.20;2.60;;;;;;;29.49;40.49;97689.92;107297;1244;100031;-81
2023/08/12 10:29:58;;;;;;;3.80;2.60;;;;;;;29.62;40.68;97688.13;107225;1253;97809;-82
2023/08/12 10:32:26;;;;;;;4.30;3.20;;;;;;;29.70;40.78;97683.98;107300;1242;124334;-82
2023/08/12 10:34:57;;;;;;;5.10;3.30;;;;;;;29.82;40.26;97686.08;107344;1244;102332;-82
2023/08/12 10:37:25;;;;;;;5.00;3.50;;;;;;;29.87;39.77;97684.48;107647;1249;100243;-82
2023/08/12 10:39:53;;;;;;;4.40;3.40;;;;;;;29.92;40.14;97683.27;107222;1248;99853;-82
2023/08/12 10:42:46;;;;;;;6.50;3.10;;;;;;;29.93;40.08;97676.80;107531;1244;97734;-82
2023/08/12 10:45:15;;;;;;;6.00;2.70;;;;;;;29.90;39.82;97673.43;107999;1237;96811;-82
2023/08/12 10:48:08;;;;;;;6.20;2.70;;;;;;;29.97;39.07;97672.22;107851;1238;102249;-82
2023/08/12 10:50:35;;;;;;;4.60;2.70;;;;;;;29.98;39.04;97668.29;107772;1246;101146;-82
2023/08/12 10:53:20;;;;;;;7.50;3.10;;;;;;;29.83;39.11;97661.64;107431;1241;97928;-82
2023/08/12 10:55:49;;;;;;;3.80;2.90;;;;;;;29.70;39.64;97656.31;107417;1241;96792;-82
2023/08/12 10:58:27;;;;;;;5.80;3.00;;;;;;;29.71;39.70;97658.59;107455;1241;97370;-82
2023/08/12 11:00:55;;;;;;;6.10;3.50;;;;;;;29.77;39.82;97655.98;107353;1242;102140;-83
2023/08/12 11:03:22;;;;;;;7.00;3.50;;;;;;;29.79;39.67;97653.52;107294;1245;100410;-81
2023/08/12 11:05:48;;;;;;;3.00;2.70;;;;;;;29.81;39.47;97655.20;107410;1253;96761;-82
2023/08/12 11:08:15;;;;;;;2.80;2.40;;;;;;;29.84;39.68;97650.09;107431;1242;96792;-82
2023/08/12 11:10:43;;;;;;;4.10;2.70;;;;;;;29.83;39.88;97646.07;107425;1241;96590;-82
2023/08/12 11:13:09;;;;;;;5.60;3.30;;;;;;;29.82;39.82;97642.67;107410;1246;97737;-82
2023/08/12 11:15:41;;;;;;;4.10;2.70;;;;;;;29.80;39.87;97637.61;107615;1238;97334;-82
2023/08/12 11:18:09;;;;;;;;;;;;;;;29.74;40.15;97639.71;107435;1242;97480;-82
2023/08/12 11:20:37;;;;;;;5.20;3.40;;;;;;;29.63;40.58;97640.66;107463;1241;97070;-82
2023/08/12 11:23:05;;;;;;;5.00;3.00;;;;;;;29.63;40.55;97638.61;107447;1244;102275;-82